sensor_id;sensor_type;location;lat;lon;timestamp;P1;durP1;ratioP1;P2;durP2;ratioP2
17812;SDS011;9030;50.792;8.320;2023-03-21T00:01:48;14.93;;;4.93;;
17812;SDS011;9030;50.792;8.320;2023-03-21T00:04:15;11.10;;;5.20;;
17812;SDS011;9030;50.792;8.320;2023-03-21T00:06:42;16.40;;;5.63;;
17812;SDS011;9030;50.792;8.320;2023-03-21T00:09:09;14.03;;;5.90;;
17812;SDS011;9030;50.792;8.320;2023-03-21T00:11:37;14.23;;;5.53;;
17812;SDS011;9030;50.792;8.320;2023-03-21T00:14:04;11.83;;;3.63;;
17812;SDS011;9030;50.792;8.320;2023-03-21T00:16:32;12.23;;;4.10;;
17812;SDS011;9030;50.792;8.320;2023-03-21T00:19:00;7.37;;;3.77;;
17812;SDS011;9030;50.792;8.320;2023-03-21T00:21:29;9.03;;;4.40;;
17812;SDS011;9030;50.792;8.320;2023-03-21T00:23:57;11.20;;;4.67;;
17812;SDS011;9030;50.792;8.320;2023-03-21T00:26:25;8.97;;;4.07;;
17812;SDS011;9030;50.792;8.320;2023-03-21T00:28:53;14.50;;;5.17;;
17812;SDS011;9030;50.792;8.320;2023-03-21T00:31:20;15.87;;;5.13;;
17812;SDS011;9030;50.792;8.320;2023-03-21T00:33:47;11.57;;;5.27;;
17812;SDS011;9030;50.792;8.320;2023-03-21T00:36:14;13.67;;;4.97;;
17812;SDS011;9030;50.792;8.320;2023-03-21T00:38:41;15.40;;;5.10;;
17812;SDS011;9030;50.792;8.320;2023-03-21T00:41:09;11.90;;;4.90;;
17812;SDS011;9030;50.792;8.320;2023-03-21T00:43:38;11.87;;;5.23;;
17812;SDS011;9030;50.792;8.320;2023-03-21T00:46:07;14.97;;;5.60;;
17812;SDS011;9030;50.792;8.320;2023-03-21T00:48:34;12.30;;;4.97;;
17812;SDS011;9030;50.792;8.320;2023-03-21T00:51:01;19.60;;;5.03;;
17812;SDS011;9030;50.792;8.320;2023-03-21T00:53:28;13.90;;;5.17;;
17812;SDS011;9030;50.792;8.320;2023-03-21T00:55:55;13.20;;;4.87;;
17812;SDS011;9030;50.792;8.320;2023-03-21T00:58:22;13.57;;;5.97;;
17812;SDS011;9030;50.792;8.320;2023-03-21T01:00:48;16.77;;;8.23;;
17812;SDS011;9030;50.792;8.320;2023-03-21T01:03:16;15.17;;;8.03;;
17812;SDS011;9030;50.792;8.320;2023-03-21T01:05:47;24.73;;;10.23;;
17812;SDS011;9030;50.792;8.320;2023-03-21T01:08:30;15.20;;;8.67;;
17812;SDS011;9030;50.792;8.320;2023-03-21T01:11:00;17.97;;;8.00;;
17812;SDS011;9030;50.792;8.320;2023-03-21T01:13:28;8.83;;;3.40;;
17812;SDS011;9030;50.792;8.320;2023-03-21T01:15:55;12.47;;;3.60;;
17812;SDS011;9030;50.792;8.320;2023-03-21T01:18:24;12.17;;;3.43;;
17812;SDS011;9030;50.792;8.320;2023-03-21T01:20:54;14.40;;;4.00;;
17812;SDS011;9030;50.792;8.320;2023-03-21T01:23:25;9.50;;;3.43;;
17812;SDS011;9030;50.792;8.320;2023-03-21T01:25:53;10.17;;;4.03;;
17812;SDS011;9030;50.792;8.320;2023-03-21T01:28:21;10.83;;;4.07;;
17812;SDS011;9030;50.792;8.320;2023-03-21T01:30:48;11.77;;;3.03;;
17812;SDS011;9030;50.792;8.320;2023-03-21T01:33:16;17.50;;;3.17;;
17812;SDS011;9030;50.792;8.320;2023-03-21T01:35:46;10.90;;;3.07;;
17812;SDS011;9030;50.792;8.320;2023-03-21T01:38:13;8.70;;;3.10;;
17812;SDS011;9030;50.792;8.320;2023-03-21T01:40:40;12.27;;;3.30;;
17812;SDS011;9030;50.792;8.320;2023-03-21T01:43:16;15.90;;;3.93;;
17812;SDS011;9030;50.792;8.320;2023-03-21T01:46:07;15.23;;;4.33;;
17812;SDS011;9030;50.792;8.320;2023-03-21T01:48:54;9.13;;;3.17;;
17812;SDS011;9030;50.792;8.320;2023-03-21T01:51:25;12.33;;;4.37;;
17812;SDS011;9030;50.792;8.320;2023-03-21T01:53:53;11.83;;;3.47;;
17812;SDS011;9030;50.792;8.320;2023-03-21T01:56:22;11.37;;;4.00;;
17812;SDS011;9030;50.792;8.320;2023-03-21T01:58:51;9.57;;;4.00;;
17812;SDS011;9030;50.792;8.320;2023-03-21T02:01:21;15.33;;;4.53;;
17812;SDS011;9030;50.792;8.320;2023-03-21T02:03:48;9.53;;;3.23;;
17812;SDS011;9030;50.792;8.320;2023-03-21T02:06:26;11.97;;;3.60;;
17812;SDS011;9030;50.792;8.320;2023-03-21T02:08:59;13.33;;;3.87;;
17812;SDS011;9030;50.792;8.320;2023-03-21T02:11:29;14.23;;;4.07;;
17812;SDS011;9030;50.792;8.320;2023-03-21T02:13:57;9.63;;;3.17;;
17812;SDS011;9030;50.792;8.320;2023-03-21T02:16:27;9.67;;;3.07;;
17812;SDS011;9030;50.792;8.320;2023-03-21T02:19:03;12.77;;;4.13;;
17812;SDS011;9030;50.792;8.320;2023-03-21T02:24:44;9.53;;;3.40;;
17812;SDS011;9030;50.792;8.320;2023-03-21T02:27:22;8.27;;;2.83;;
17812;SDS011;9030;50.792;8.320;2023-03-21T02:30:03;19.93;;;4.23;;
17812;SDS011;9030;50.792;8.320;2023-03-21T02:35:53;12.57;;;4.03;;
17812;SDS011;9030;50.792;8.320;2023-03-21T02:38:33;10.37;;;3.00;;
17812;SDS011;9030;50.792;8.320;2023-03-21T02:41:08;11.37;;;3.33;;
17812;SDS011;9030;50.792;8.320;2023-03-21T02:43:43;11.50;;;3.50;;
17812;SDS011;9030;50.792;8.320;2023-03-21T02:46:13;13.67;;;4.43;;
17812;SDS011;9030;50.792;8.320;2023-03-21T02:48:44;12.57;;;3.90;;
17812;SDS011;9030;50.792;8.320;2023-03-21T02:51:18;10.20;;;3.63;;
17812;SDS011;9030;50.792;8.320;2023-03-21T02:53:50;11.77;;;3.87;;
17812;SDS011;9030;50.792;8.320;2023-03-21T02:56:20;10.40;;;3.33;;
17812;SDS011;9030;50.792;8.320;2023-03-21T02:58:51;14.23;;;4.60;;
17812;SDS011;9030;50.792;8.320;2023-03-21T03:01:18;9.87;;;3.10;;
17812;SDS011;9030;50.792;8.320;2023-03-21T03:03:45;10.23;;;3.30;;
17812;SDS011;9030;50.792;8.320;2023-03-21T03:06:13;16.93;;;5.43;;
17812;SDS011;9030;50.792;8.320;2023-03-21T03:08:46;19.53;;;4.77;;
17812;SDS011;9030;50.792;8.320;2023-03-21T03:11:32;12.43;;;2.97;;
17812;SDS011;9030;50.792;8.320;2023-03-21T03:14:07;12.03;;;3.93;;
17812;SDS011;9030;50.792;8.320;2023-03-21T03:16:48;8.13;;;3.67;;
17812;SDS011;9030;50.792;8.320;2023-03-21T03:19:24;16.80;;;6.67;;
17812;SDS011;9030;50.792;8.320;2023-03-21T03:22:00;20.80;;;7.47;;
17812;SDS011;9030;50.792;8.320;2023-03-21T03:24:35;19.93;;;8.20;;
17812;SDS011;9030;50.792;8.320;2023-03-21T03:27:08;18.90;;;8.73;;
17812;SDS011;9030;50.792;8.320;2023-03-21T03:29:39;27.47;;;12.90;;
17812;SDS011;9030;50.792;8.320;2023-03-21T03:32:10;16.07;;;6.57;;
17812;SDS011;9030;50.792;8.320;2023-03-21T03:34:43;17.47;;;6.87;;
17812;SDS011;9030;50.792;8.320;2023-03-21T03:37:15;15.60;;;7.40;;
17812;SDS011;9030;50.792;8.320;2023-03-21T03:39:48;18.00;;;6.80;;
17812;SDS011;9030;50.792;8.320;2023-03-21T03:42:22;16.70;;;5.57;;
17812;SDS011;9030;50.792;8.320;2023-03-21T03:44:52;16.40;;;7.13;;
17812;SDS011;9030;50.792;8.320;2023-03-21T03:47:20;11.77;;;3.30;;
17812;SDS011;9030;50.792;8.320;2023-03-21T03:49:53;14.50;;;3.67;;
17812;SDS011;9030;50.792;8.320;2023-03-21T03:52:26;12.43;;;3.87;;
17812;SDS011;9030;50.792;8.320;2023-03-21T03:54:57;13.67;;;4.50;;
17812;SDS011;9030;50.792;8.320;2023-03-21T03:57:25;10.40;;;3.53;;
17812;SDS011;9030;50.792;8.320;2023-03-21T03:59:52;12.87;;;4.80;;
17812;SDS011;9030;50.792;8.320;2023-03-21T04:02:19;16.20;;;4.93;;
17812;SDS011;9030;50.792;8.320;2023-03-21T04:04:46;15.50;;;4.17;;
17812;SDS011;9030;50.792;8.320;2023-03-21T04:07:16;13.83;;;3.83;;
17812;SDS011;9030;50.792;8.320;2023-03-21T04:09:43;12.30;;;4.37;;
17812;SDS011;9030;50.792;8.320;2023-03-21T04:12:12;13.53;;;4.33;;
17812;SDS011;9030;50.792;8.320;2023-03-21T04:14:38;14.17;;;4.53;;
17812;SDS011;9030;50.792;8.320;2023-03-21T04:17:06;14.73;;;5.50;;
17812;SDS011;9030;50.792;8.320;2023-03-21T04:19:35;16.03;;;6.60;;
17812;SDS011;9030;50.792;8.320;2023-03-21T04:22:02;15.60;;;6.30;;
17812;SDS011;9030;50.792;8.320;2023-03-21T04:24:28;14.57;;;5.90;;
17812;SDS011;9030;50.792;8.320;2023-03-21T04:26:57;14.53;;;6.10;;
17812;SDS011;9030;50.792;8.320;2023-03-21T04:29:26;15.83;;;6.50;;
17812;SDS011;9030;50.792;8.320;2023-03-21T04:31:55;17.63;;;6.07;;
17812;SDS011;9030;50.792;8.320;2023-03-21T04:34:23;15.97;;;6.60;;
17812;SDS011;9030;50.792;8.320;2023-03-21T04:36:52;15.50;;;6.10;;
17812;SDS011;9030;50.792;8.320;2023-03-21T04:39:19;15.57;;;5.80;;
17812;SDS011;9030;50.792;8.320;2023-03-21T04:41:46;17.47;;;6.33;;
17812;SDS011;9030;50.792;8.320;2023-03-21T04:44:14;14.80;;;6.23;;
17812;SDS011;9030;50.792;8.320;2023-03-21T04:46:43;18.00;;;6.97;;
17812;SDS011;9030;50.792;8.320;2023-03-21T04:49:10;25.47;;;11.93;;
17812;SDS011;9030;50.792;8.320;2023-03-21T04:51:37;27.13;;;11.93;;
17812;SDS011;9030;50.792;8.320;2023-03-21T04:54:04;21.90;;;9.77;;
17812;SDS011;9030;50.792;8.320;2023-03-21T04:56:31;19.23;;;12.07;;
17812;SDS011;9030;50.792;8.320;2023-03-21T04:59:01;20.33;;;9.10;;
17812;SDS011;9030;50.792;8.320;2023-03-21T05:01:31;27.53;;;20.20;;
17812;SDS011;9030;50.792;8.320;2023-03-21T05:03:59;23.43;;;14.67;;
17812;SDS011;9030;50.792;8.320;2023-03-21T05:06:27;21.43;;;11.50;;
17812;SDS011;9030;50.792;8.320;2023-03-21T05:08:54;18.70;;;9.20;;
17812;SDS011;9030;50.792;8.320;2023-03-21T05:11:25;15.30;;;7.63;;
17812;SDS011;9030;50.792;8.320;2023-03-21T05:13:54;19.73;;;8.67;;
17812;SDS011;9030;50.792;8.320;2023-03-21T05:16:20;15.80;;;8.30;;
17812;SDS011;9030;50.792;8.320;2023-03-21T05:18:51;16.00;;;7.63;;
17812;SDS011;9030;50.792;8.320;2023-03-21T05:21:20;19.07;;;7.90;;
17812;SDS011;9030;50.792;8.320;2023-03-21T05:23:47;17.83;;;7.60;;
17812;SDS011;9030;50.792;8.320;2023-03-21T05:26:19;17.93;;;6.03;;
17812;SDS011;9030;50.792;8.320;2023-03-21T05:28:47;18.50;;;6.27;;
17812;SDS011;9030;50.792;8.320;2023-03-21T05:31:14;14.67;;;6.37;;
17812;SDS011;9030;50.792;8.320;2023-03-21T05:33:42;13.17;;;6.43;;
17812;SDS011;9030;50.792;8.320;2023-03-21T05:36:09;15.20;;;5.93;;
17812;SDS011;9030;50.792;8.320;2023-03-21T05:38:38;17.57;;;7.63;;
17812;SDS011;9030;50.792;8.320;2023-03-21T05:41:06;16.60;;;6.97;;
17812;SDS011;9030;50.792;8.320;2023-03-21T05:43:33;21.00;;;7.20;;
17812;SDS011;9030;50.792;8.320;2023-03-21T05:46:00;18.37;;;7.33;;
17812;SDS011;9030;50.792;8.320;2023-03-21T05:48:27;14.93;;;6.13;;
17812;SDS011;9030;50.792;8.320;2023-03-21T05:50:57;15.70;;;7.57;;
17812;SDS011;9030;50.792;8.320;2023-03-21T05:53:23;12.73;;;5.53;;
17812;SDS011;9030;50.792;8.320;2023-03-21T05:55:51;16.27;;;6.67;;
17812;SDS011;9030;50.792;8.320;2023-03-21T05:58:19;16.87;;;7.27;;
17812;SDS011;9030;50.792;8.320;2023-03-21T06:00:46;18.97;;;8.10;;
17812;SDS011;9030;50.792;8.320;2023-03-21T06:03:13;18.30;;;7.30;;
17812;SDS011;9030;50.792;8.320;2023-03-21T06:05:40;16.23;;;6.73;;
17812;SDS011;9030;50.792;8.320;2023-03-21T06:08:08;17.07;;;6.70;;
17812;SDS011;9030;50.792;8.320;2023-03-21T06:10:38;16.40;;;7.20;;
17812;SDS011;9030;50.792;8.320;2023-03-21T06:13:07;15.33;;;7.80;;
17812;SDS011;9030;50.792;8.320;2023-03-21T06:15:35;19.07;;;6.70;;
17812;SDS011;9030;50.792;8.320;2023-03-21T06:18:03;12.10;;;6.57;;
17812;SDS011;9030;50.792;8.320;2023-03-21T06:20:30;15.90;;;6.10;;
17812;SDS011;9030;50.792;8.320;2023-03-21T06:22:56;16.90;;;6.83;;
17812;SDS011;9030;50.792;8.320;2023-03-21T06:25:23;13.23;;;7.27;;
17812;SDS011;9030;50.792;8.320;2023-03-21T06:27:50;18.87;;;6.83;;
17812;SDS011;9030;50.792;8.320;2023-03-21T06:30:21;18.20;;;7.20;;
17812;SDS011;9030;50.792;8.320;2023-03-21T06:32:47;15.00;;;7.63;;
17812;SDS011;9030;50.792;8.320;2023-03-21T06:35:14;14.90;;;6.67;;
17812;SDS011;9030;50.792;8.320;2023-03-21T06:37:41;19.47;;;8.23;;
17812;SDS011;9030;50.792;8.320;2023-03-21T06:40:10;20.80;;;7.80;;
17812;SDS011;9030;50.792;8.320;2023-03-21T06:42:37;19.40;;;7.60;;
17812;SDS011;9030;50.792;8.320;2023-03-21T06:45:04;22.47;;;8.10;;
17812;SDS011;9030;50.792;8.320;2023-03-21T06:47:33;12.47;;;7.37;;
17812;SDS011;9030;50.792;8.320;2023-03-21T06:50:00;15.27;;;7.90;;
17812;SDS011;9030;50.792;8.320;2023-03-21T06:52:27;15.60;;;6.60;;
17812;SDS011;9030;50.792;8.320;2023-03-21T06:54:54;16.73;;;9.10;;
17812;SDS011;9030;50.792;8.320;2023-03-21T06:57:20;17.33;;;7.37;;
17812;SDS011;9030;50.792;8.320;2023-03-21T06:59:48;17.57;;;8.63;;
17812;SDS011;9030;50.792;8.320;2023-03-21T07:02:15;16.63;;;7.43;;
17812;SDS011;9030;50.792;8.320;2023-03-21T07:04:43;18.70;;;8.03;;
17812;SDS011;9030;50.792;8.320;2023-03-21T07:07:10;18.87;;;7.17;;
17812;SDS011;9030;50.792;8.320;2023-03-21T07:09:36;19.87;;;7.80;;
17812;SDS011;9030;50.792;8.320;2023-03-21T07:12:04;19.73;;;7.23;;
17812;SDS011;9030;50.792;8.320;2023-03-21T07:14:31;19.40;;;8.20;;
17812;SDS011;9030;50.792;8.320;2023-03-21T07:16:58;16.70;;;8.23;;
17812;SDS011;9030;50.792;8.320;2023-03-21T07:19:25;17.93;;;7.43;;
17812;SDS011;9030;50.792;8.320;2023-03-21T07:21:53;21.40;;;8.30;;
17812;SDS011;9030;50.792;8.320;2023-03-21T07:24:20;20.57;;;7.97;;
17812;SDS011;9030;50.792;8.320;2023-03-21T07:26:47;20.10;;;9.00;;
17812;SDS011;9030;50.792;8.320;2023-03-21T07:29:13;22.40;;;9.37;;
17812;SDS011;9030;50.792;8.320;2023-03-21T07:31:41;19.30;;;8.47;;
17812;SDS011;9030;50.792;8.320;2023-03-21T07:34:08;19.80;;;8.87;;
17812;SDS011;9030;50.792;8.320;2023-03-21T07:36:35;17.50;;;8.17;;
17812;SDS011;9030;50.792;8.320;2023-03-21T07:39:03;16.90;;;8.20;;
17812;SDS011;9030;50.792;8.320;2023-03-21T07:41:32;20.83;;;8.70;;
17812;SDS011;9030;50.792;8.320;2023-03-21T07:44:01;17.40;;;7.73;;
17812;SDS011;9030;50.792;8.320;2023-03-21T07:46:37;24.73;;;10.13;;
17812;SDS011;9030;50.792;8.320;2023-03-21T07:49:03;26.73;;;9.73;;
17812;SDS011;9030;50.792;8.320;2023-03-21T07:51:34;31.27;;;19.47;;
17812;SDS011;9030;50.792;8.320;2023-03-21T07:54:01;22.00;;;13.80;;
17812;SDS011;9030;50.792;8.320;2023-03-21T07:56:30;21.47;;;10.30;;
17812;SDS011;9030;50.792;8.320;2023-03-21T07:58:59;20.73;;;8.70;;
17812;SDS011;9030;50.792;8.320;2023-03-21T08:01:29;20.63;;;8.37;;
17812;SDS011;9030;50.792;8.320;2023-03-21T08:03:56;21.27;;;9.53;;
17812;SDS011;9030;50.792;8.320;2023-03-21T08:06:26;23.23;;;8.95;;
17812;SDS011;9030;50.792;8.320;2023-03-21T08:08:53;23.13;;;9.80;;
17812;SDS011;9030;50.792;8.320;2023-03-21T08:11:21;22.13;;;9.13;;
17812;SDS011;9030;50.792;8.320;2023-03-21T08:13:48;23.13;;;8.63;;
17812;SDS011;9030;50.792;8.320;2023-03-21T08:16:15;17.83;;;9.20;;
17812;SDS011;9030;50.792;8.320;2023-03-21T08:18:42;18.80;;;7.90;;
17812;SDS011;9030;50.792;8.320;2023-03-21T08:21:09;25.97;;;7.27;;
17812;SDS011;9030;50.792;8.320;2023-03-21T08:23:36;17.60;;;8.93;;
17812;SDS011;9030;50.792;8.320;2023-03-21T08:26:06;19.10;;;9.03;;
17812;SDS011;9030;50.792;8.320;2023-03-21T08:28:35;16.47;;;8.37;;
17812;SDS011;9030;50.792;8.320;2023-03-21T08:31:05;20.60;;;8.57;;
17812;SDS011;9030;50.792;8.320;2023-03-21T08:33:32;21.37;;;9.63;;
17812;SDS011;9030;50.792;8.320;2023-03-21T08:36:00;19.33;;;9.60;;
17812;SDS011;9030;50.792;8.320;2023-03-21T08:38:26;22.70;;;9.27;;
17812;SDS011;9030;50.792;8.320;2023-03-21T08:40:55;21.20;;;8.57;;
17812;SDS011;9030;50.792;8.320;2023-03-21T08:43:24;16.27;;;7.77;;
17812;SDS011;9030;50.792;8.320;2023-03-21T08:45:52;17.80;;;8.63;;
17812;SDS011;9030;50.792;8.320;2023-03-21T08:48:19;17.77;;;9.57;;
17812;SDS011;9030;50.792;8.320;2023-03-21T08:50:46;18.97;;;9.17;;
17812;SDS011;9030;50.792;8.320;2023-03-21T08:53:13;19.30;;;9.03;;
17812;SDS011;9030;50.792;8.320;2023-03-21T08:55:40;19.00;;;9.07;;
17812;SDS011;9030;50.792;8.320;2023-03-21T08:58:06;21.97;;;9.10;;
17812;SDS011;9030;50.792;8.320;2023-03-21T09:00:33;20.20;;;9.88;;
17812;SDS011;9030;50.792;8.320;2023-03-21T09:03:01;20.08;;;9.15;;
17812;SDS011;9030;50.792;8.320;2023-03-21T09:05:30;20.63;;;9.93;;
17812;SDS011;9030;50.792;8.320;2023-03-21T09:07:58;17.73;;;8.70;;
17812;SDS011;9030;50.792;8.320;2023-03-21T09:10:28;19.47;;;10.67;;
17812;SDS011;9030;50.792;8.320;2023-03-21T09:12:55;19.23;;;9.43;;
17812;SDS011;9030;50.792;8.320;2023-03-21T09:15:24;18.10;;;9.50;;
17812;SDS011;9030;50.792;8.320;2023-03-21T09:17:53;20.65;;;10.52;;
17812;SDS011;9030;50.792;8.320;2023-03-21T09:20:24;18.37;;;10.10;;
17812;SDS011;9030;50.792;8.320;2023-03-21T09:22:57;17.37;;;10.10;;
17812;SDS011;9030;50.792;8.320;2023-03-21T09:25:25;16.53;;;8.80;;
17812;SDS011;9030;50.792;8.320;2023-03-21T09:27:55;22.20;;;10.70;;
17812;SDS011;9030;50.792;8.320;2023-03-21T09:30:22;25.27;;;12.75;;
17812;SDS011;9030;50.792;8.320;2023-03-21T09:32:49;23.93;;;11.30;;
17812;SDS011;9030;50.792;8.320;2023-03-21T09:35:17;22.23;;;10.90;;
17812;SDS011;9030;50.792;8.320;2023-03-21T09:37:47;17.40;;;9.83;;
17812;SDS011;9030;50.792;8.320;2023-03-21T09:40:15;20.63;;;10.10;;
17812;SDS011;9030;50.792;8.320;2023-03-21T09:42:46;18.30;;;11.20;;
17812;SDS011;9030;50.792;8.320;2023-03-21T09:45:23;21.93;;;11.10;;
17812;SDS011;9030;50.792;8.320;2023-03-21T09:47:59;21.43;;;10.97;;
17812;SDS011;9030;50.792;8.320;2023-03-21T09:50:27;20.70;;;10.00;;
17812;SDS011;9030;50.792;8.320;2023-03-21T09:52:59;22.13;;;9.83;;
17812;SDS011;9030;50.792;8.320;2023-03-21T09:55:29;20.43;;;9.13;;
17812;SDS011;9030;50.792;8.320;2023-03-21T09:58:00;19.23;;;9.80;;
17812;SDS011;9030;50.792;8.320;2023-03-21T10:00:32;18.53;;;11.47;;
17812;SDS011;9030;50.792;8.320;2023-03-21T10:03:03;24.90;;;10.73;;
17812;SDS011;9030;50.792;8.320;2023-03-21T10:05:34;23.00;;;10.60;;
17812;SDS011;9030;50.792;8.320;2023-03-21T10:08:06;19.53;;;9.27;;
17812;SDS011;9030;50.792;8.320;2023-03-21T10:10:36;16.40;;;9.67;;
17812;SDS011;9030;50.792;8.320;2023-03-21T10:13:11;20.80;;;9.13;;
17812;SDS011;9030;50.792;8.320;2023-03-21T10:15:40;17.17;;;11.33;;
17812;SDS011;9030;50.792;8.320;2023-03-21T10:18:07;21.00;;;10.17;;
17812;SDS011;9030;50.792;8.320;2023-03-21T10:20:40;18.53;;;9.40;;
17812;SDS011;9030;50.792;8.320;2023-03-21T10:23:12;19.70;;;9.97;;
17812;SDS011;9030;50.792;8.320;2023-03-21T10:25:41;18.40;;;10.07;;
17812;SDS011;9030;50.792;8.320;2023-03-21T10:28:12;18.57;;;10.97;;
17812;SDS011;9030;50.792;8.320;2023-03-21T10:30:42;19.73;;;10.93;;
17812;SDS011;9030;50.792;8.320;2023-03-21T10:33:12;20.13;;;10.17;;
17812;SDS011;9030;50.792;8.320;2023-03-21T10:35:43;22.50;;;11.23;;
17812;SDS011;9030;50.792;8.320;2023-03-21T10:38:14;17.67;;;11.13;;
17812;SDS011;9030;50.792;8.320;2023-03-21T10:40:43;17.73;;;10.80;;
17812;SDS011;9030;50.792;8.320;2023-03-21T10:43:18;20.57;;;11.30;;
17812;SDS011;9030;50.792;8.320;2023-03-21T10:45:57;16.57;;;10.13;;
17812;SDS011;9030;50.792;8.320;2023-03-21T10:48:32;20.30;;;12.37;;
17812;SDS011;9030;50.792;8.320;2023-03-21T10:51:01;18.30;;;11.17;;
17812;SDS011;9030;50.792;8.320;2023-03-21T10:53:34;18.93;;;11.20;;
17812;SDS011;9030;50.792;8.320;2023-03-21T10:56:05;20.53;;;11.47;;
17812;SDS011;9030;50.792;8.320;2023-03-21T10:58:34;18.70;;;11.50;;
17812;SDS011;9030;50.792;8.320;2023-03-21T11:01:05;23.50;;;15.50;;
17812;SDS011;9030;50.792;8.320;2023-03-21T11:03:37;17.53;;;10.30;;
17812;SDS011;9030;50.792;8.320;2023-03-21T11:06:10;17.80;;;11.83;;
17812;SDS011;9030;50.792;8.320;2023-03-21T11:08:43;18.53;;;12.03;;
17812;SDS011;9030;50.792;8.320;2023-03-21T11:11:18;18.33;;;12.77;;
17812;SDS011;9030;50.792;8.320;2023-03-21T11:13:54;22.37;;;11.57;;
17812;SDS011;9030;50.792;8.320;2023-03-21T11:16:24;19.27;;;10.80;;
17812;SDS011;9030;50.792;8.320;2023-03-21T11:18:56;22.20;;;11.97;;
17812;SDS011;9030;50.792;8.320;2023-03-21T11:21:26;19.97;;;12.03;;
17812;SDS011;9030;50.792;8.320;2023-03-21T11:23:54;16.87;;;11.30;;
17812;SDS011;9030;50.792;8.320;2023-03-21T11:26:25;22.43;;;13.07;;
17812;SDS011;9030;50.792;8.320;2023-03-21T11:28:55;21.73;;;13.07;;
17812;SDS011;9030;50.792;8.320;2023-03-21T11:31:35;19.23;;;13.70;;
17812;SDS011;9030;50.792;8.320;2023-03-21T11:34:04;20.23;;;13.97;;
17812;SDS011;9030;50.792;8.320;2023-03-21T11:36:32;18.23;;;11.87;;
17812;SDS011;9030;50.792;8.320;2023-03-21T11:39:13;26.00;;;11.77;;
17812;SDS011;9030;50.792;8.320;2023-03-21T11:41:48;21.30;;;12.30;;
17812;SDS011;9030;50.792;8.320;2023-03-21T11:44:27;21.50;;;13.83;;
17812;SDS011;9030;50.792;8.320;2023-03-21T11:46:56;19.80;;;11.47;;
17812;SDS011;9030;50.792;8.320;2023-03-21T11:49:23;16.60;;;9.80;;
17812;SDS011;9030;50.792;8.320;2023-03-21T11:51:52;21.63;;;11.27;;
17812;SDS011;9030;50.792;8.320;2023-03-21T11:54:29;19.07;;;11.27;;
17812;SDS011;9030;50.792;8.320;2023-03-21T11:57:03;20.33;;;10.93;;
17812;SDS011;9030;50.792;8.320;2023-03-21T11:59:40;17.93;;;10.73;;
17812;SDS011;9030;50.792;8.320;2023-03-21T12:02:19;18.50;;;10.17;;
17812;SDS011;9030;50.792;8.320;2023-03-21T12:05:04;17.53;;;10.83;;
17812;SDS011;9030;50.792;8.320;2023-03-21T12:07:41;17.63;;;10.60;;
17812;SDS011;9030;50.792;8.320;2023-03-21T12:10:22;15.60;;;9.10;;
17812;SDS011;9030;50.792;8.320;2023-03-21T12:13:07;17.67;;;9.37;;
17812;SDS011;9030;50.792;8.320;2023-03-21T12:15:42;15.70;;;8.13;;
17812;SDS011;9030;50.792;8.320;2023-03-21T12:18:20;17.63;;;9.30;;
17812;SDS011;9030;50.792;8.320;2023-03-21T12:21:05;17.80;;;10.13;;
17812;SDS011;9030;50.792;8.320;2023-03-21T12:23:41;14.60;;;7.43;;
17812;SDS011;9030;50.792;8.320;2023-03-21T12:26:20;17.40;;;6.97;;
17812;SDS011;9030;50.792;8.320;2023-03-21T12:28:56;17.07;;;8.33;;
17812;SDS011;9030;50.792;8.320;2023-03-21T12:31:38;19.97;;;8.10;;
17812;SDS011;9030;50.792;8.320;2023-03-21T12:34:17;13.73;;;7.30;;
17812;SDS011;9030;50.792;8.320;2023-03-21T12:37:01;15.90;;;7.30;;
17812;SDS011;9030;50.792;8.320;2023-03-21T12:39:37;15.87;;;6.23;;
17812;SDS011;9030;50.792;8.320;2023-03-21T12:42:13;12.93;;;5.73;;
17812;SDS011;9030;50.792;8.320;2023-03-21T12:44:53;12.37;;;5.90;;
17812;SDS011;9030;50.792;8.320;2023-03-21T12:47:25;11.27;;;5.40;;
17812;SDS011;9030;50.792;8.320;2023-03-21T12:49:54;10.03;;;4.60;;
17812;SDS011;9030;50.792;8.320;2023-03-21T12:52:26;8.47;;;4.60;;
17812;SDS011;9030;50.792;8.320;2023-03-21T12:54:57;8.57;;;4.90;;
17812;SDS011;9030;50.792;8.320;2023-03-21T12:57:31;15.70;;;9.43;;
17812;SDS011;9030;50.792;8.320;2023-03-21T13:00:02;8.37;;;4.77;;
17812;SDS011;9030;50.792;8.320;2023-03-21T13:02:37;9.27;;;3.40;;
17812;SDS011;9030;50.792;8.320;2023-03-21T13:05:09;13.87;;;3.93;;
17812;SDS011;9030;50.792;8.320;2023-03-21T13:07:44;9.03;;;4.50;;
17812;SDS011;9030;50.792;8.320;2023-03-21T13:10:16;8.43;;;4.07;;
17812;SDS011;9030;50.792;8.320;2023-03-21T13:13:00;13.00;;;5.83;;
17812;SDS011;9030;50.792;8.320;2023-03-21T13:15:44;12.97;;;7.67;;
17812;SDS011;9030;50.792;8.320;2023-03-21T13:21:26;9.10;;;4.73;;
17812;SDS011;9030;50.792;8.320;2023-03-21T13:24:04;12.40;;;6.80;;
17812;SDS011;9030;50.792;8.320;2023-03-21T13:26:49;11.53;;;6.00;;
17812;SDS011;9030;50.792;8.320;2023-03-21T13:29:23;11.57;;;6.07;;
17812;SDS011;9030;50.792;8.320;2023-03-21T13:31:53;13.40;;;6.30;;
17812;SDS011;9030;50.792;8.320;2023-03-21T13:34:22;14.67;;;8.93;;
17812;SDS011;9030;50.792;8.320;2023-03-21T13:36:50;9.97;;;4.43;;
17812;SDS011;9030;50.792;8.320;2023-03-21T13:39:18;15.80;;;7.17;;
17812;SDS011;9030;50.792;8.320;2023-03-21T13:41:49;10.97;;;6.30;;
17812;SDS011;9030;50.792;8.320;2023-03-21T13:44:30;10.30;;;3.97;;
17812;SDS011;9030;50.792;8.320;2023-03-21T13:47:01;12.63;;;7.20;;
17812;SDS011;9030;50.792;8.320;2023-03-21T13:49:31;17.77;;;7.83;;
17812;SDS011;9030;50.792;8.320;2023-03-21T13:51:59;18.40;;;9.60;;
17812;SDS011;9030;50.792;8.320;2023-03-21T13:54:28;11.77;;;5.73;;
17812;SDS011;9030;50.792;8.320;2023-03-21T13:57:19;16.87;;;10.50;;
17812;SDS011;9030;50.792;8.320;2023-03-21T13:59:51;13.80;;;6.43;;
17812;SDS011;9030;50.792;8.320;2023-03-21T14:02:49;19.43;;;9.47;;
17812;SDS011;9030;50.792;8.320;2023-03-21T14:05:21;16.17;;;8.63;;
17812;SDS011;9030;50.792;8.320;2023-03-21T14:07:50;13.07;;;6.17;;
17812;SDS011;9030;50.792;8.320;2023-03-21T14:10:21;14.07;;;7.03;;
17812;SDS011;9030;50.792;8.320;2023-03-21T14:12:53;14.03;;;7.30;;
17812;SDS011;9030;50.792;8.320;2023-03-21T14:15:21;14.37;;;6.50;;
17812;SDS011;9030;50.792;8.320;2023-03-21T14:17:50;14.17;;;7.50;;
17812;SDS011;9030;50.792;8.320;2023-03-21T14:20:20;16.93;;;5.80;;
17812;SDS011;9030;50.792;8.320;2023-03-21T14:22:48;17.17;;;9.23;;
17812;SDS011;9030;50.792;8.320;2023-03-21T14:25:17;15.63;;;7.43;;
17812;SDS011;9030;50.792;8.320;2023-03-21T14:27:48;13.60;;;8.10;;
17812;SDS011;9030;50.792;8.320;2023-03-21T14:30:19;15.90;;;8.83;;
17812;SDS011;9030;50.792;8.320;2023-03-21T14:32:50;11.97;;;7.73;;
17812;SDS011;9030;50.792;8.320;2023-03-21T14:35:20;17.00;;;8.10;;
17812;SDS011;9030;50.792;8.320;2023-03-21T14:37:47;11.77;;;5.67;;
17812;SDS011;9030;50.792;8.320;2023-03-21T14:40:19;15.60;;;6.27;;
17812;SDS011;9030;50.792;8.320;2023-03-21T14:42:48;17.00;;;9.43;;
17812;SDS011;9030;50.792;8.320;2023-03-21T14:45:17;16.13;;;8.53;;
17812;SDS011;9030;50.792;8.320;2023-03-21T14:47:55;13.73;;;6.73;;
17812;SDS011;9030;50.792;8.320;2023-03-21T14:50:23;9.83;;;5.03;;
17812;SDS011;9030;50.792;8.320;2023-03-21T14:52:58;9.83;;;4.17;;
17812;SDS011;9030;50.792;8.320;2023-03-21T14:55:25;13.53;;;6.37;;
17812;SDS011;9030;50.792;8.320;2023-03-21T14:57:52;12.03;;;5.60;;
17812;SDS011;9030;50.792;8.320;2023-03-21T15:00:22;13.00;;;5.63;;
17812;SDS011;9030;50.792;8.320;2023-03-21T15:02:50;15.57;;;10.80;;
17812;SDS011;9030;50.792;8.320;2023-03-21T15:05:21;14.13;;;7.60;;
17812;SDS011;9030;50.792;8.320;2023-03-21T15:07:52;12.20;;;8.73;;
17812;SDS011;9030;50.792;8.320;2023-03-21T15:10:22;12.93;;;8.40;;
17812;SDS011;9030;50.792;8.320;2023-03-21T15:12:51;12.23;;;7.50;;
17812;SDS011;9030;50.792;8.320;2023-03-21T15:15:19;12.57;;;8.97;;